CCV4 weather

Bell Island Airport
Bell Island, Newfoundland and Labrador, Canada

Public forecast

Using degrees Celsius for public forecast. Weather courtesy of forecast.io.

METAR (pilot weather report)

Closest report is St. John's International Airport, 9.4 nm (17.4 km) E. Retrieved 2019/09/17 05:00 UTC (56 minutes ago):

CYYT 170500Z 01004KT 1/8SM R11/3000FT/N R16/2000FT/N FG VV001 12/12 A2966 RMK FG8 SLP048 DENSITY ALT 500FT

TAF (pilot weather forecast)

Forecast is more than 12 hours old.

Closest forecast is St. John's International Airport, 9.4 nm (17.4 km) E. Retrieved 2019/09/16 00:42 UTC (1 day ago):

TAF CYYT 162338Z 1700/1724 13006KT 4SM BR OVC003 TEMPO 1700/1702 6SM -SHRA BR OVC004 FM170200 02005KT 3/4SM BR OVC002 TEMPO 1702/1711 2SM -SHRA BR OVC004 BECMG 1704/1706 36010G20KT FM171100 36012G22KT 3SM -SHRA BR OVC008 FM171500 34012G22KT P6SM BKN012 OVC040 FM171800 34012G22KT P6SM BKN025 BECMG 1722/1724 30010KT RMK NXT FCST BY 170600Z